createdAt,value
2017-10-15T00:02:05.145Z,12.03
2017-10-15T00:04:33.753Z,11.63
2017-10-15T00:07:01.633Z,11.33
2017-10-15T00:09:29.700Z,11.47
2017-10-15T00:11:57.536Z,11.00
2017-10-15T00:14:26.168Z,11.43
2017-10-15T00:16:54.096Z,11.05
2017-10-15T00:19:21.976Z,11.80
2017-10-15T00:21:49.815Z,12.67
2017-10-15T00:24:18.501Z,10.97
2017-10-15T00:26:47.198Z,10.50
2017-10-15T00:29:15.226Z,11.53
2017-10-15T00:31:43.090Z,10.07
2017-10-15T00:34:10.961Z,11.93
2017-10-15T00:36:38.838Z,11.23
2017-10-15T00:39:06.699Z,10.90
2017-10-15T00:41:34.591Z,11.00
2017-10-15T00:44:03.239Z,11.20
2017-10-15T00:46:31.119Z,14.87
2017-10-15T00:48:58.977Z,12.70
2017-10-15T00:51:26.854Z,12.20
2017-10-15T00:53:54.759Z,11.73
2017-10-15T00:56:22.725Z,12.43
2017-10-15T00:58:50.683Z,12.97
2017-10-15T01:01:19.338Z,13.03
2017-10-15T01:03:47.364Z,10.03
2017-10-15T01:06:15.264Z,10.90
2017-10-15T01:08:43.126Z,12.10
2017-10-15T01:11:10.971Z,13.17
2017-10-15T01:13:38.840Z,10.33
2017-10-15T01:16:06.733Z,12.00
2017-10-15T01:18:34.663Z,11.87
2017-10-15T01:21:02.619Z,12.63
2017-10-15T01:23:30.564Z,12.37
2017-10-15T01:25:59.235Z,11.23
2017-10-15T01:28:27.192Z,12.40
2017-10-15T01:30:55.147Z,11.20
2017-10-15T01:33:23.116Z,11.80
2017-10-15T01:35:51.087Z,12.70
2017-10-15T01:38:19.084Z,12.03
2017-10-15T01:40:47.120Z,12.60
2017-10-15T01:43:15.072Z,13.13
2017-10-15T01:45:43.046Z,11.63
2017-10-15T01:48:11.010Z,13.03
2017-10-15T01:50:38.927Z,13.37
2017-10-15T01:53:06.802Z,11.13
2017-10-15T01:55:35.563Z,11.80
2017-10-15T01:58:03.491Z,10.30
2017-10-15T02:00:31.459Z,10.30
2017-10-15T02:02:59.361Z,10.17
2017-10-15T02:05:27.233Z,10.00
2017-10-15T02:07:55.101Z,10.83
2017-10-15T02:10:23.015Z,8.60
2017-10-15T02:12:50.924Z,8.13
2017-10-15T02:15:18.974Z,7.27
2017-10-15T02:17:46.913Z,7.17
2017-10-15T02:20:14.842Z,7.43
2017-10-15T02:22:42.789Z,7.43
2017-10-15T02:25:10.657Z,5.70
2017-10-15T02:27:38.516Z,6.47
2017-10-15T02:30:06.391Z,5.50
2017-10-15T02:32:34.257Z,6.20
2017-10-15T02:35:02.120Z,5.13
2017-10-15T02:37:29.951Z,5.40
2017-10-15T02:39:57.825Z,5.53
2017-10-15T02:42:25.680Z,5.80
2017-10-15T02:44:54.406Z,5.23
2017-10-15T02:47:22.309Z,5.10
2017-10-15T02:49:50.205Z,5.17
2017-10-15T02:52:18.079Z,4.40
2017-10-15T02:54:45.953Z,4.30
2017-10-15T02:57:13.857Z,5.00
2017-10-15T02:59:41.707Z,3.90
2017-10-15T03:02:09.549Z,5.20
2017-10-15T03:04:37.419Z,5.10
2017-10-15T03:07:05.355Z,5.50
2017-10-15T03:09:34.009Z,5.33
2017-10-15T03:12:01.900Z,5.30
2017-10-15T03:14:30.519Z,5.07
2017-10-15T03:16:58.371Z,4.50
2017-10-15T03:19:27.034Z,4.87
2017-10-15T03:21:54.896Z,5.80
2017-10-15T03:24:22.748Z,5.50
2017-10-15T03:26:50.624Z,5.50
2017-10-15T03:29:18.569Z,5.20
2017-10-15T03:31:46.461Z,5.77
2017-10-15T03:34:14.376Z,5.33
2017-10-15T03:36:42.995Z,5.33
2017-10-15T03:39:10.846Z,5.43
2017-10-15T03:41:38.724Z,5.03
2017-10-15T03:44:06.590Z,5.63
2017-10-15T03:46:34.476Z,6.10
2017-10-15T03:49:02.368Z,5.33
2017-10-15T03:51:31.016Z,6.03
2017-10-15T03:53:58.884Z,5.07
2017-10-15T03:56:26.753Z,5.77
2017-10-15T03:58:54.661Z,5.10
2017-10-15T04:01:22.542Z,5.97
2017-10-15T04:03:50.432Z,6.27
2017-10-15T04:06:18.289Z,6.43
2017-10-15T04:08:46.140Z,5.37
2017-10-15T04:11:14.033Z,5.53
2017-10-15T04:13:41.917Z,5.03
2017-10-15T04:16:09.805Z,5.27
2017-10-15T04:18:37.739Z,6.47
2017-10-15T04:21:05.669Z,5.57
2017-10-15T04:23:33.549Z,5.00
2017-10-15T04:26:01.401Z,5.40
2017-10-15T04:28:29.256Z,5.00
2017-10-15T04:30:57.902Z,4.83
2017-10-15T04:33:25.752Z,5.70
2017-10-15T04:35:53.613Z,5.80
2017-10-15T04:38:21.454Z,5.40
2017-10-15T04:40:49.480Z,5.97
2017-10-15T04:43:17.323Z,5.03
2017-10-15T04:45:45.178Z,4.07
2017-10-15T04:48:13.055Z,5.37
2017-10-15T04:50:40.924Z,5.10
2017-10-15T04:53:08.808Z,5.03
2017-10-15T04:55:36.674Z,4.97
2017-10-15T04:58:04.555Z,4.90
2017-10-15T05:00:32.433Z,4.80
2017-10-15T05:03:01.053Z,4.70
2017-10-15T05:05:28.915Z,4.70
2017-10-15T05:07:56.766Z,4.30
2017-10-15T05:10:24.604Z,4.33
2017-10-15T05:12:52.503Z,5.27
2017-10-15T05:15:20.344Z,4.40
2017-10-15T05:17:49.029Z,4.90
2017-10-15T05:20:17.841Z,4.83
2017-10-15T05:22:45.705Z,5.40
2017-10-15T05:25:13.584Z,4.10
2017-10-15T05:27:41.434Z,4.60
2017-10-15T05:30:09.297Z,4.63
2017-10-15T05:32:37.988Z,5.23
2017-10-15T05:35:05.865Z,3.73
2017-10-15T05:37:33.776Z,4.27
2017-10-15T05:40:01.659Z,4.60
2017-10-15T05:42:29.583Z,4.43
2017-10-15T05:44:57.426Z,5.10
2017-10-15T05:47:25.279Z,3.67
2017-10-15T05:49:53.936Z,4.73
2017-10-15T05:52:21.872Z,4.70
2017-10-15T05:54:49.814Z,4.27
2017-10-15T05:57:17.785Z,4.67
2017-10-15T05:59:45.622Z,3.87
2017-10-15T06:02:14.258Z,5.10
2017-10-15T06:04:42.187Z,3.70
2017-10-15T06:07:10.065Z,4.23
2017-10-15T06:09:38.007Z,4.90
2017-10-15T06:12:06.648Z,4.90
2017-10-15T06:14:35.364Z,4.90
2017-10-15T06:17:03.295Z,5.80
2017-10-15T06:19:31.976Z,6.00
2017-10-15T06:21:59.870Z,5.93
2017-10-15T06:24:27.712Z,5.70
2017-10-15T06:26:55.589Z,5.23
2017-10-15T06:29:23.512Z,6.23
2017-10-15T06:31:51.507Z,4.77
2017-10-15T06:34:19.427Z,6.60
2017-10-15T06:36:48.024Z,5.30
2017-10-15T06:42:18.982Z,5.17
2017-10-15T06:44:47.643Z,5.50
2017-10-15T06:47:16.431Z,5.23
2017-10-15T06:49:44.377Z,4.90
2017-10-15T06:52:12.216Z,4.70
2017-10-15T06:54:40.112Z,5.83
2017-10-15T06:57:08.090Z,5.30
2017-10-15T06:59:35.969Z,5.50
2017-10-15T07:02:04.028Z,5.50
2017-10-15T07:04:31.854Z,4.80
2017-10-15T07:06:59.681Z,5.13
2017-10-15T07:09:28.269Z,5.63
2017-10-15T07:11:56.239Z,5.20
2017-10-15T07:14:24.821Z,4.90
2017-10-15T07:16:53.442Z,4.97
2017-10-15T07:19:21.307Z,5.87
2017-10-15T07:21:49.209Z,4.53
2017-10-15T07:24:17.050Z,4.55
2017-10-15T07:26:45.059Z,4.80
2017-10-15T07:29:13.008Z,5.50
2017-10-15T07:31:40.908Z,5.30
2017-10-15T07:34:09.512Z,6.13
2017-10-15T07:36:37.461Z,5.10
2017-10-15T07:39:06.130Z,5.77
2017-10-15T07:41:34.055Z,4.57
2017-10-15T07:44:02.011Z,4.43
2017-10-15T07:46:29.907Z,5.10
2017-10-15T07:48:57.892Z,5.30
2017-10-15T07:51:25.717Z,4.70
2017-10-15T07:53:54.127Z,5.00
2017-10-15T07:56:22.366Z,3.87
2017-10-15T07:58:50.370Z,5.20
2017-10-15T08:01:18.249Z,5.03
2017-10-15T08:03:46.400Z,6.37
2017-10-15T08:06:14.223Z,4.47
2017-10-15T08:08:42.813Z,4.40
2017-10-15T08:11:11.385Z,4.80
2017-10-15T08:13:40.091Z,5.13
2017-10-15T08:16:08.015Z,5.13
2017-10-15T08:18:35.951Z,4.63
2017-10-15T08:21:03.935Z,4.40
2017-10-15T08:23:31.836Z,4.30
2017-10-15T08:26:00.967Z,4.23
2017-10-15T08:28:32.198Z,4.90
2017-10-15T08:31:00.890Z,4.90
2017-10-15T08:33:33.607Z,4.97
2017-10-15T08:36:02.140Z,5.10
2017-10-15T08:38:30.143Z,3.70
2017-10-15T08:40:58.052Z,5.07
2017-10-15T08:43:26.018Z,4.40
2017-10-15T08:45:54.146Z,5.60
2017-10-15T08:48:21.992Z,6.23
2017-10-15T08:50:49.876Z,4.40
2017-10-15T08:53:18.511Z,4.80
2017-10-15T08:55:46.355Z,4.77
2017-10-15T08:58:14.280Z,4.80
2017-10-15T09:00:42.248Z,4.50
2017-10-15T09:03:10.236Z,5.30
2017-10-15T09:05:39.189Z,4.13
2017-10-15T09:08:07.991Z,4.33
2017-10-15T09:10:35.875Z,4.87
2017-10-15T09:13:03.703Z,5.00
2017-10-15T09:15:32.379Z,5.07
2017-10-15T09:18:01.353Z,5.50
2017-10-15T09:20:29.567Z,4.50
2017-10-15T09:22:58.154Z,14.67
2017-10-15T09:25:27.035Z,4.63
2017-10-15T09:27:55.183Z,4.60
2017-10-15T09:30:23.244Z,5.70
2017-10-15T09:32:51.210Z,7.80
2017-10-15T09:35:19.859Z,4.77
2017-10-15T09:37:47.714Z,5.13
2017-10-15T09:40:15.536Z,6.00
2017-10-15T09:42:43.366Z,6.13
2017-10-15T09:45:11.166Z,5.17
2017-10-15T09:47:39.041Z,5.47
2017-10-15T09:50:06.876Z,4.82
2017-10-15T09:52:48.586Z,5.53
2017-10-15T09:55:16.516Z,5.47
2017-10-15T09:57:44.340Z,5.70
2017-10-15T10:00:13.321Z,4.60
2017-10-15T10:02:41.152Z,4.97
2017-10-15T10:05:09.015Z,5.20
2017-10-15T10:07:36.986Z,4.73
2017-10-15T10:10:04.858Z,4.90
2017-10-15T10:12:32.760Z,4.62
2017-10-15T10:15:04.435Z,5.60
2017-10-15T10:17:33.087Z,4.70
2017-10-15T10:20:00.924Z,4.28
2017-10-15T10:22:28.964Z,6.03
2017-10-15T10:24:56.831Z,4.22
2017-10-15T10:27:24.755Z,4.67
2017-10-15T10:29:52.635Z,5.37
2017-10-15T10:32:20.651Z,4.90
2017-10-15T10:34:52.038Z,4.90
2017-10-15T10:37:20.896Z,4.77
2017-10-15T10:39:48.743Z,4.33
2017-10-15T10:42:16.638Z,4.70
2017-10-15T10:44:44.779Z,5.32
2017-10-15T10:47:12.672Z,5.23
2017-10-15T10:49:40.596Z,4.63
2017-10-15T10:52:09.283Z,4.40
2017-10-15T10:54:37.959Z,4.67
2017-10-15T10:57:06.688Z,5.00
2017-10-15T10:59:34.679Z,4.93
2017-10-15T11:02:02.509Z,4.75
2017-10-15T11:04:30.417Z,4.87
2017-10-15T11:06:58.271Z,5.20
2017-10-15T11:09:26.259Z,4.80
2017-10-15T11:11:54.089Z,4.80
2017-10-15T11:14:22.050Z,4.80
2017-10-15T11:16:49.940Z,4.47
2017-10-15T11:19:17.776Z,4.70
2017-10-15T11:21:46.374Z,5.30
2017-10-15T11:24:14.206Z,4.97
2017-10-15T11:26:42.868Z,4.47
2017-10-15T11:29:10.703Z,4.70
2017-10-15T11:31:38.575Z,5.20
2017-10-15T11:34:12.320Z,4.50
2017-10-15T11:36:40.246Z,4.70
2017-10-15T11:39:08.144Z,6.67
2017-10-15T11:41:36.068Z,7.90
2017-10-15T11:44:04.924Z,5.87
2017-10-15T11:46:35.649Z,5.73
2017-10-15T11:49:03.607Z,7.50
2017-10-15T11:51:31.832Z,9.70
2017-10-15T11:53:59.676Z,5.97
2017-10-15T11:56:28.309Z,9.17
2017-10-15T11:58:56.168Z,9.90
2017-10-15T12:01:24.872Z,6.90
2017-10-15T12:03:52.813Z,16.00
2017-10-15T12:06:21.102Z,10.90
2017-10-15T12:08:49.948Z,16.60
2017-10-15T12:11:18.183Z,9.77
2017-10-15T12:13:46.232Z,29.07
2017-10-15T12:16:14.151Z,24.87
2017-10-15T12:18:42.993Z,47.63
2017-10-15T12:21:10.973Z,23.03
2017-10-15T12:23:38.811Z,15.13
2017-10-15T12:26:06.775Z,16.70
2017-10-15T12:28:34.599Z,18.67
2017-10-15T12:31:02.923Z,16.07
2017-10-15T12:33:31.039Z,12.80
2017-10-15T12:35:59.627Z,7.33
2017-10-15T12:38:27.765Z,10.30
2017-10-15T12:40:56.172Z,11.83
2017-10-15T12:43:25.063Z,9.90
2017-10-15T12:45:52.891Z,11.47
2017-10-15T12:48:21.379Z,10.32
2017-10-15T12:50:50.509Z,7.63
2017-10-15T12:53:19.100Z,10.93
2017-10-15T12:55:47.167Z,8.43
2017-10-15T12:58:15.208Z,10.90
2017-10-15T13:00:44.519Z,9.00
2017-10-15T13:03:12.431Z,6.40
2017-10-15T13:05:41.047Z,7.20
2017-10-15T13:08:09.004Z,7.53
2017-10-15T13:10:36.881Z,6.83
2017-10-15T13:13:04.736Z,5.90
2017-10-15T13:15:33.450Z,7.23
2017-10-15T13:18:02.586Z,4.63
2017-10-15T13:20:34.746Z,6.77
2017-10-15T13:23:06.291Z,6.83
2017-10-15T13:25:36.261Z,5.72
2017-10-15T13:28:07.332Z,6.60
2017-10-15T13:30:35.189Z,5.72
2017-10-15T13:33:03.017Z,6.27
2017-10-15T13:35:30.886Z,5.80
2017-10-15T13:37:58.862Z,5.50
2017-10-15T13:40:26.705Z,5.80
2017-10-15T13:42:55.332Z,5.80
2017-10-15T13:45:23.246Z,6.80
2017-10-15T13:47:51.872Z,6.70
2017-10-15T13:50:19.692Z,6.10
2017-10-15T13:52:48.296Z,5.23
2017-10-15T13:55:16.159Z,6.60
2017-10-15T13:57:44.939Z,5.50
2017-10-15T14:00:13.624Z,5.30
2017-10-15T14:02:42.333Z,6.37
2017-10-15T14:05:10.309Z,5.50
2017-10-15T14:07:38.241Z,5.60
2017-10-15T14:10:06.861Z,5.70
2017-10-15T14:12:34.946Z,4.87
2017-10-15T14:15:02.796Z,3.83
2017-10-15T14:17:30.733Z,5.23
2017-10-15T14:19:59.352Z,4.30
2017-10-15T14:22:27.714Z,4.03
2017-10-15T14:24:56.776Z,4.50
2017-10-15T14:27:25.508Z,4.37
2017-10-15T14:29:53.455Z,3.80
2017-10-15T14:32:22.402Z,5.10
2017-10-15T14:34:50.271Z,4.40
2017-10-15T14:37:18.125Z,4.33
2017-10-15T14:39:46.015Z,4.60
2017-10-15T14:42:13.936Z,4.60
2017-10-15T14:44:41.834Z,3.20
2017-10-15T14:47:09.688Z,4.07
2017-10-15T14:49:37.509Z,5.03
2017-10-15T14:52:06.426Z,4.00
2017-10-15T14:54:34.272Z,4.00
2017-10-15T14:57:02.936Z,4.27
2017-10-15T14:59:30.809Z,4.90
2017-10-15T15:01:59.398Z,4.23
2017-10-15T15:04:28.253Z,4.13
2017-10-15T15:06:56.152Z,3.47
2017-10-15T15:09:24.767Z,4.13
2017-10-15T15:11:52.616Z,3.80
2017-10-15T15:14:21.248Z,4.43
2017-10-15T15:16:49.068Z,4.83
2017-10-15T15:19:16.955Z,3.50
2017-10-15T15:21:44.879Z,3.30
2017-10-15T15:24:13.544Z,3.80
2017-10-15T15:26:41.495Z,3.93
2017-10-15T15:29:09.383Z,4.20
2017-10-15T15:31:37.343Z,4.17
2017-10-15T15:34:06.466Z,4.17
2017-10-15T15:36:34.392Z,4.13
2017-10-15T15:39:02.257Z,4.27
2017-10-15T15:41:30.203Z,4.30
2017-10-15T15:43:58.110Z,3.40
2017-10-15T15:46:25.961Z,4.47
2017-10-15T15:48:53.777Z,3.33
2017-10-15T15:51:22.559Z,4.20
2017-10-15T15:53:51.160Z,3.60
2017-10-15T15:56:19.056Z,4.87
2017-10-15T15:58:46.966Z,3.53
2017-10-15T16:01:15.645Z,4.53
2017-10-15T16:03:43.522Z,3.40
2017-10-15T16:06:12.107Z,4.50
2017-10-15T16:08:42.279Z,4.20
2017-10-15T16:11:10.427Z,4.73
2017-10-15T16:13:38.378Z,3.80
2017-10-15T16:16:06.306Z,4.73
2017-10-15T16:18:34.314Z,3.60
2017-10-15T16:21:03.024Z,3.80
2017-10-15T16:23:31.009Z,4.47
2017-10-15T16:25:58.843Z,5.07
2017-10-15T16:28:26.811Z,4.07
2017-10-15T16:30:55.685Z,5.07
2017-10-15T16:33:24.475Z,4.80
2017-10-15T16:35:52.489Z,4.80
2017-10-15T16:38:20.573Z,4.50
2017-10-15T16:40:48.454Z,4.30
2017-10-15T16:43:17.061Z,4.03
2017-10-15T16:45:45.105Z,3.83
2017-10-15T16:48:13.104Z,4.97
2017-10-15T16:50:41.697Z,5.13
2017-10-15T16:53:10.445Z,4.47
2017-10-15T16:55:38.368Z,4.23
2017-10-15T16:58:06.343Z,5.70
2017-10-15T17:00:34.304Z,5.07
2017-10-15T17:03:02.638Z,5.43
2017-10-15T17:05:30.477Z,5.20
2017-10-15T17:07:58.435Z,4.90
2017-10-15T17:10:26.480Z,5.07
2017-10-15T17:12:55.101Z,6.23
2017-10-15T17:15:23.200Z,5.70
2017-10-15T17:17:52.223Z,5.67
2017-10-15T17:20:21.158Z,4.80
2017-10-15T17:22:49.081Z,5.03
2017-10-15T17:25:17.712Z,4.50
2017-10-15T17:27:46.920Z,5.80
2017-10-15T17:30:15.545Z,3.90
2017-10-15T17:32:44.351Z,4.90
2017-10-15T17:35:12.614Z,5.53
2017-10-15T17:37:41.334Z,4.93
2017-10-15T17:40:09.139Z,4.00
2017-10-15T17:42:37.028Z,5.30
2017-10-15T17:45:05.632Z,5.30
2017-10-15T17:47:33.454Z,5.20
2017-10-15T17:50:01.323Z,4.90
2017-10-15T17:52:29.274Z,5.60
2017-10-15T17:54:57.188Z,5.43
2017-10-15T17:57:25.875Z,6.67
2017-10-15T17:59:53.744Z,5.30
2017-10-15T18:02:29.399Z,5.10
2017-10-15T18:04:57.549Z,5.93
2017-10-15T18:07:26.211Z,6.40
2017-10-15T18:09:54.184Z,5.07
2017-10-15T18:12:22.108Z,6.90
2017-10-15T18:14:49.983Z,7.90
2017-10-15T18:17:17.953Z,10.00
2017-10-15T18:19:45.891Z,8.13
2017-10-15T18:22:13.815Z,7.77
2017-10-15T18:24:42.411Z,8.10
2017-10-15T18:27:10.232Z,7.70
2017-10-15T18:29:38.066Z,7.00
2017-10-15T18:32:06.708Z,7.23
2017-10-15T18:34:35.290Z,10.33
2017-10-15T18:37:03.273Z,9.60
2017-10-15T18:39:33.084Z,6.80
2017-10-15T18:42:00.926Z,7.73
2017-10-15T18:44:28.775Z,6.33
2017-10-15T18:46:56.770Z,7.30
2017-10-15T18:49:24.663Z,6.53
2017-10-15T18:51:53.355Z,6.43
2017-10-15T18:54:22.032Z,6.50
2017-10-15T18:56:49.883Z,6.27
2017-10-15T18:59:17.700Z,5.70
2017-10-15T19:01:45.576Z,6.10
2017-10-15T19:04:13.487Z,5.20
2017-10-15T19:06:42.072Z,4.77
2017-10-15T19:09:09.958Z,5.80
2017-10-15T19:11:38.106Z,5.70
2017-10-15T19:14:05.927Z,6.17
2017-10-15T19:16:33.712Z,5.87
2017-10-15T19:19:01.732Z,5.47
2017-10-15T19:21:30.332Z,6.43
2017-10-15T19:23:58.892Z,6.37
2017-10-15T19:26:27.602Z,7.23
2017-10-15T19:28:56.177Z,5.87
2017-10-15T19:31:24.729Z,5.87
2017-10-15T19:33:52.740Z,6.30
2017-10-15T19:36:20.527Z,6.40
2017-10-15T19:38:48.391Z,5.67
2017-10-15T19:41:16.282Z,6.60
2017-10-15T19:43:44.084Z,7.10
2017-10-15T19:46:12.723Z,6.57
2017-10-15T19:48:42.013Z,6.33
2017-10-15T19:51:10.675Z,5.80
2017-10-15T19:53:38.581Z,4.43
2017-10-15T19:56:07.557Z,5.10
2017-10-15T19:58:35.360Z,4.70
2017-10-15T20:01:03.306Z,6.20
2017-10-15T20:03:31.133Z,5.20
2017-10-15T20:05:58.954Z,4.43
2017-10-15T20:08:26.739Z,4.73
2017-10-15T20:10:56.217Z,4.87
2017-10-15T20:13:24.126Z,6.87
2017-10-15T20:15:52.784Z,5.50
2017-10-15T20:18:21.676Z,5.20
2017-10-15T20:20:51.534Z,10.30
2017-10-15T20:23:19.525Z,11.60
2017-10-15T20:25:47.344Z,6.53
2017-10-15T20:28:16.040Z,7.10
2017-10-15T20:30:44.629Z,7.60
2017-10-15T20:33:12.462Z,6.73
2017-10-15T20:35:40.235Z,6.00
2017-10-15T20:38:11.345Z,5.43
2017-10-15T20:40:43.299Z,5.63
2017-10-15T20:43:14.355Z,5.77
2017-10-15T20:45:42.227Z,5.80
2017-10-15T20:48:11.100Z,7.13
2017-10-15T20:50:39.601Z,5.70
2017-10-15T20:53:08.220Z,7.07
2017-10-15T20:55:36.128Z,6.27
2017-10-15T20:58:05.049Z,5.40
2017-10-15T21:00:33.929Z,5.40
2017-10-15T21:03:17.179Z,5.20
2017-10-15T21:05:46.713Z,6.00
2017-10-15T21:08:14.528Z,4.70
2017-10-15T21:10:42.316Z,4.70
2017-10-15T21:13:12.215Z,4.73
2017-10-15T21:15:40.103Z,4.60
2017-10-15T21:18:08.752Z,5.40
2017-10-15T21:20:36.553Z,5.63
2017-10-15T21:23:05.288Z,5.20
2017-10-15T21:25:33.091Z,6.27
2017-10-15T21:28:01.705Z,5.50
2017-10-15T21:30:30.414Z,4.80
2017-10-15T21:32:58.200Z,5.30
2017-10-15T21:35:26.022Z,6.43
2017-10-15T21:37:54.023Z,6.53
2017-10-15T21:40:21.858Z,8.40
2017-10-15T21:42:50.141Z,6.43
2017-10-15T21:45:17.992Z,6.30
2017-10-15T21:47:45.801Z,6.20
2017-10-15T21:50:13.692Z,6.13
2017-10-15T21:52:41.777Z,6.10
2017-10-15T21:55:10.325Z,6.03
2017-10-15T21:57:38.535Z,5.47
2017-10-15T22:00:07.123Z,6.40
2017-10-15T22:02:36.300Z,6.87
2017-10-15T22:05:04.129Z,7.00
2017-10-15T22:07:32.062Z,7.23
2017-10-15T22:10:00.641Z,7.40
2017-10-15T22:12:29.198Z,7.10
2017-10-15T22:14:57.025Z,8.07
2017-10-15T22:17:24.845Z,6.53
2017-10-15T22:19:53.438Z,7.23
2017-10-15T22:22:25.529Z,8.00
2017-10-15T22:24:53.458Z,7.00
2017-10-15T22:27:22.151Z,7.67
2017-10-15T22:29:50.734Z,7.67
2017-10-15T22:32:19.402Z,5.70
2017-10-15T22:34:47.995Z,7.00
2017-10-15T22:37:16.605Z,6.80
2017-10-15T22:39:44.440Z,6.17
2017-10-15T22:42:13.135Z,10.30
2017-10-15T22:44:42.213Z,6.83
2017-10-15T22:47:10.126Z,6.90
2017-10-15T22:49:38.877Z,7.13
2017-10-15T22:52:07.501Z,8.30
2017-10-15T22:54:35.403Z,7.03
2017-10-15T22:57:03.311Z,6.50
2017-10-15T22:59:31.164Z,7.13
2017-10-15T23:01:59.769Z,6.67
2017-10-15T23:04:27.628Z,7.53
2017-10-15T23:06:55.502Z,7.40
2017-10-15T23:09:23.338Z,6.20
2017-10-15T23:11:52.067Z,5.83
2017-10-15T23:14:19.903Z,7.50
2017-10-15T23:16:48.558Z,8.53
2017-10-15T23:19:16.420Z,8.17
2017-10-15T23:21:44.340Z,7.00
2017-10-15T23:24:12.384Z,6.27
2017-10-15T23:26:40.279Z,6.93
2017-10-15T23:29:08.389Z,7.77
2017-10-15T23:31:36.235Z,6.90
2017-10-15T23:34:04.319Z,7.30
2017-10-15T23:36:32.266Z,6.60
2017-10-15T23:39:00.077Z,7.20
2017-10-15T23:41:27.971Z,6.60
2017-10-15T23:43:56.819Z,7.47
2017-10-15T23:46:24.739Z,7.27
2017-10-15T23:48:52.567Z,6.40
2017-10-15T23:51:20.485Z,7.60
2017-10-15T23:53:48.335Z,7.20
2017-10-15T23:56:16.220Z,7.57
2017-10-15T23:58:44.346Z,6.57
